sensor_id;sensor_type;location;lat;lon;timestamp;pressure;altitude;pressure_sealevel;temperature;humidity
967;BME280;56108;48.730;9.304;2024-02-23T00:01:07;95583.53;;;5.03;100.00
967;BME280;56108;48.730;9.304;2024-02-23T00:03:17;95582.69;;;5.03;100.00
967;BME280;56108;48.730;9.304;2024-02-23T00:05:25;95586.38;;;5.22;100.00
967;BME280;56108;48.730;9.304;2024-02-23T00:07:33;95592.13;;;5.16;100.00
967;BME280;56108;48.730;9.304;2024-02-23T00:09:44;95595.59;;;5.06;100.00
967;BME280;56108;48.730;9.304;2024-02-23T00:11:54;95594.53;;;5.08;100.00
967;BME280;56108;48.730;9.304;2024-02-23T00:14:00;95591.78;;;5.10;100.00
967;BME280;56108;48.730;9.304;2024-02-23T00:16:08;95584.97;;;4.96;100.00
967;BME280;56108;48.730;9.304;2024-02-23T00:18:16;95578.25;;;5.03;100.00
967;BME280;56108;48.730;9.304;2024-02-23T00:20:25;95591.66;;;5.00;100.00
967;BME280;56108;48.730;9.304;2024-02-23T00:22:34;95611.31;;;5.07;100.00
967;BME280;56108;48.730;9.304;2024-02-23T00:24:42;95616.47;;;4.97;100.00
967;BME280;56108;48.730;9.304;2024-02-23T00:26:56;95620.28;;;5.16;100.00
967;BME280;56108;48.730;9.304;2024-02-23T00:29:04;95636.38;;;5.02;100.00
967;BME280;56108;48.730;9.304;2024-02-23T00:31:13;95633.25;;;4.96;100.00
967;BME280;56108;48.730;9.304;2024-02-23T00:33:21;95630.63;;;5.08;100.00
967;BME280;56108;48.730;9.304;2024-02-23T00:35:29;95643.81;;;4.96;100.00
967;BME280;56108;48.730;9.304;2024-02-23T00:37:37;95657.56;;;5.00;100.00
967;BME280;56108;48.730;9.304;2024-02-23T00:39:46;95665.84;;;5.07;100.00
967;BME280;56108;48.730;9.304;2024-02-23T00:41:56;95663.56;;;5.13;100.00
967;BME280;56108;48.730;9.304;2024-02-23T00:44:05;95656.25;;;5.06;100.00
967;BME280;56108;48.730;9.304;2024-02-23T00:46:14;95657.22;;;5.05;100.00
967;BME280;56108;48.730;9.304;2024-02-23T00:48:22;95662.47;;;5.05;100.00
967;BME280;56108;48.730;9.304;2024-02-23T00:50:33;95651.81;;;5.17;100.00
967;BME280;56108;48.730;9.304;2024-02-23T00:52:42;95649.91;;;5.19;100.00
967;BME280;56108;48.730;9.304;2024-02-23T00:54:47;95651.56;;;5.09;100.00
967;BME280;56108;48.730;9.304;2024-02-23T00:56:58;95657.19;;;5.16;100.00
967;BME280;56108;48.730;9.304;2024-02-23T00:59:06;95663.81;;;4.99;100.00
967;BME280;56108;48.730;9.304;2024-02-23T01:01:14;95670.50;;;5.14;100.00
967;BME280;56108;48.730;9.304;2024-02-23T01:03:24;95682.97;;;5.01;100.00
967;BME280;56108;48.730;9.304;2024-02-23T01:05:33;95678.91;;;5.08;100.00
967;BME280;56108;48.730;9.304;2024-02-23T01:07:42;95681.91;;;5.15;100.00
967;BME280;56108;48.730;9.304;2024-02-23T01:09:51;95696.63;;;5.06;100.00
967;BME280;56108;48.730;9.304;2024-02-23T01:12:02;95686.81;;;5.08;100.00
967;BME280;56108;48.730;9.304;2024-02-23T01:14:11;95693.16;;;5.06;100.00
967;BME280;56108;48.730;9.304;2024-02-23T01:16:19;95699.75;;;5.00;100.00
967;BME280;56108;48.730;9.304;2024-02-23T01:18:27;95693.41;;;5.03;100.00
967;BME280;56108;48.730;9.304;2024-02-23T01:20:35;95682.25;;;5.10;100.00
967;BME280;56108;48.730;9.304;2024-02-23T01:22:43;95675.66;;;5.16;100.00
967;BME280;56108;48.730;9.304;2024-02-23T01:24:52;95662.75;;;5.02;100.00
967;BME280;56108;48.730;9.304;2024-02-23T01:27:03;95663.22;;;5.07;100.00
967;BME280;56108;48.730;9.304;2024-02-23T01:29:11;95662.25;;;4.96;100.00
967;BME280;56108;48.730;9.304;2024-02-23T01:31:21;95667.50;;;4.85;100.00
967;BME280;56108;48.730;9.304;2024-02-23T01:33:30;95662.84;;;4.78;100.00
967;BME280;56108;48.730;9.304;2024-02-23T01:35:38;95668.72;;;4.81;100.00
967;BME280;56108;48.730;9.304;2024-02-23T01:37:46;95657.91;;;4.84;100.00
967;BME280;56108;48.730;9.304;2024-02-23T01:39:54;95670.03;;;4.87;100.00
967;BME280;56108;48.730;9.304;2024-02-23T01:42:06;95670.63;;;4.79;100.00
967;BME280;56108;48.730;9.304;2024-02-23T01:44:14;95657.69;;;4.65;100.00
967;BME280;56108;48.730;9.304;2024-02-23T01:46:23;95664.25;;;4.59;100.00
967;BME280;56108;48.730;9.304;2024-02-23T01:48:32;95658.88;;;4.50;100.00
967;BME280;56108;48.730;9.304;2024-02-23T01:50:40;95649.50;;;4.45;100.00
967;BME280;56108;48.730;9.304;2024-02-23T01:52:50;95649.31;;;4.60;100.00
967;BME280;56108;48.730;9.304;2024-02-23T01:54:59;95656.72;;;4.55;100.00
967;BME280;56108;48.730;9.304;2024-02-23T01:57:11;95647.00;;;4.44;100.00
967;BME280;56108;48.730;9.304;2024-02-23T01:59:40;95646.84;;;4.34;100.00
967;BME280;56108;48.730;9.304;2024-02-23T02:01:50;95644.59;;;4.41;100.00
967;BME280;56108;48.730;9.304;2024-02-23T02:03:59;95644.44;;;4.31;100.00
967;BME280;56108;48.730;9.304;2024-02-23T02:06:09;95650.31;;;4.35;100.00
967;BME280;56108;48.730;9.304;2024-02-23T02:08:15;95650.47;;;4.33;100.00
967;BME280;56108;48.730;9.304;2024-02-23T02:10:34;95657.00;;;4.28;100.00
967;BME280;56108;48.730;9.304;2024-02-23T02:12:45;95660.59;;;4.27;100.00
967;BME280;56108;48.730;9.304;2024-02-23T02:14:53;95663.16;;;4.04;100.00
967;BME280;56108;48.730;9.304;2024-02-23T02:17:02;95665.13;;;4.13;100.00
967;BME280;56108;48.730;9.304;2024-02-23T02:19:11;95676.81;;;4.09;100.00
967;BME280;56108;48.730;9.304;2024-02-23T02:21:19;95681.78;;;4.01;100.00
967;BME280;56108;48.730;9.304;2024-02-23T02:23:30;95681.28;;;3.96;100.00
967;BME280;56108;48.730;9.304;2024-02-23T02:25:39;95678.56;;;3.98;100.00
967;BME280;56108;48.730;9.304;2024-02-23T02:27:49;95676.88;;;3.97;100.00
967;BME280;56108;48.730;9.304;2024-02-23T02:29:58;95672.31;;;3.87;100.00
967;BME280;56108;48.730;9.304;2024-02-23T02:32:06;95676.66;;;4.00;100.00
967;BME280;56108;48.730;9.304;2024-02-23T02:34:15;95681.78;;;4.01;100.00
967;BME280;56108;48.730;9.304;2024-02-23T02:36:23;95679.56;;;4.08;100.00
967;BME280;56108;48.730;9.304;2024-02-23T02:38:31;95682.25;;;3.95;100.00
967;BME280;56108;48.730;9.304;2024-02-23T02:40:41;95665.50;;;3.96;100.00
967;BME280;56108;48.730;9.304;2024-02-23T02:42:52;95670.38;;;3.89;100.00
967;BME280;56108;48.730;9.304;2024-02-23T02:44:57;95656.91;;;3.94;100.00
967;BME280;56108;48.730;9.304;2024-02-23T02:47:06;95659.56;;;4.05;100.00
967;BME280;56108;48.730;9.304;2024-02-23T02:49:14;95660.88;;;4.00;100.00
967;BME280;56108;48.730;9.304;2024-02-23T02:51:22;95666.50;;;4.06;100.00
967;BME280;56108;48.730;9.304;2024-02-23T02:53:31;95663.13;;;3.93;100.00
967;BME280;56108;48.730;9.304;2024-02-23T02:55:42;95658.44;;;3.97;100.00
967;BME280;56108;48.730;9.304;2024-02-23T02:57:54;95664.06;;;3.92;100.00
967;BME280;56108;48.730;9.304;2024-02-23T03:00:02;95661.78;;;3.87;100.00
967;BME280;56108;48.730;9.304;2024-02-23T03:02:10;95671.72;;;3.95;100.00
967;BME280;56108;48.730;9.304;2024-02-23T03:04:18;95674.09;;;3.87;100.00
967;BME280;56108;48.730;9.304;2024-02-23T03:06:26;95662.97;;;3.83;100.00
967;BME280;56108;48.730;9.304;2024-02-23T03:08:35;95663.56;;;3.87;100.00
967;BME280;56108;48.730;9.304;2024-02-23T03:10:43;95668.22;;;3.83;100.00
967;BME280;56108;48.730;9.304;2024-02-23T03:12:55;95667.13;;;3.86;100.00
967;BME280;56108;48.730;9.304;2024-02-23T03:15:05;95679.75;;;3.93;100.00
967;BME280;56108;48.730;9.304;2024-02-23T03:17:14;95676.50;;;3.90;100.00
967;BME280;56108;48.730;9.304;2024-02-23T03:19:23;95674.09;;;3.87;100.00
967;BME280;56108;48.730;9.304;2024-02-23T03:21:31;95666.63;;;4.05;100.00
967;BME280;56108;48.730;9.304;2024-02-23T03:23:43;95668.97;;;3.97;100.00
967;BME280;56108;48.730;9.304;2024-02-23T03:25:52;95683.94;;;3.96;100.00
967;BME280;56108;48.730;9.304;2024-02-23T03:28:03;95690.28;;;3.93;100.00
967;BME280;56108;48.730;9.304;2024-02-23T03:30:12;95696.50;;;3.92;100.00
967;BME280;56108;48.730;9.304;2024-02-23T03:32:20;95687.00;;;3.90;100.00
967;BME280;56108;48.730;9.304;2024-02-23T03:34:28;95677.00;;;3.95;100.00
967;BME280;56108;48.730;9.304;2024-02-23T03:36:36;95668.88;;;3.98;100.00
967;BME280;56108;48.730;9.304;2024-02-23T03:38:47;95676.88;;;3.97;100.00
967;BME280;56108;48.730;9.304;2024-02-23T03:40:55;95687.69;;;3.81;100.00
967;BME280;56108;48.730;9.304;2024-02-23T03:43:06;95694.53;;;3.83;100.00
967;BME280;56108;48.730;9.304;2024-02-23T03:45:12;95691.19;;;3.81;100.00
967;BME280;56108;48.730;9.304;2024-02-23T03:47:21;95702.22;;;3.86;100.00
967;BME280;56108;48.730;9.304;2024-02-23T03:49:30;95704.22;;;3.83;100.00
967;BME280;56108;48.730;9.304;2024-02-23T03:51:38;95713.97;;;3.93;100.00
967;BME280;56108;48.730;9.304;2024-02-23T03:53:49;95712.94;;;3.83;100.00
967;BME280;56108;48.730;9.304;2024-02-23T03:55:57;95719.50;;;3.78;100.00
967;BME280;56108;48.730;9.304;2024-02-23T03:58:07;95710.94;;;3.87;100.00
967;BME280;56108;48.730;9.304;2024-02-23T04:00:17;95704.94;;;3.85;100.00
967;BME280;56108;48.730;9.304;2024-02-23T04:02:26;95687.69;;;3.81;100.00
967;BME280;56108;48.730;9.304;2024-02-23T04:04:34;95684.63;;;3.87;100.00
967;BME280;56108;48.730;9.304;2024-02-23T04:06:42;95691.09;;;3.94;100.00
967;BME280;56108;48.730;9.304;2024-02-23T04:08:51;95700.28;;;3.88;100.00
967;BME280;56108;48.730;9.304;2024-02-23T04:10:59;95715.97;;;3.90;100.00
967;BME280;56108;48.730;9.304;2024-02-23T04:13:11;95712.28;;;3.92;100.00
967;BME280;56108;48.730;9.304;2024-02-23T04:15:19;95712.44;;;4.02;100.00
967;BME280;56108;48.730;9.304;2024-02-23T04:17:28;95713.31;;;3.90;100.00
967;BME280;56108;48.730;9.304;2024-02-23T04:19:36;95707.34;;;3.88;100.00
967;BME280;56108;48.730;9.304;2024-02-23T04:21:42;95711.19;;;3.95;100.00
967;BME280;56108;48.730;9.304;2024-02-23T04:23:50;95715.78;;;3.80;100.00
967;BME280;56108;48.730;9.304;2024-02-23T04:25:58;95717.63;;;3.91;100.00
967;BME280;56108;48.730;9.304;2024-02-23T04:28:10;95716.75;;;3.79;100.00
967;BME280;56108;48.730;9.304;2024-02-23T04:30:19;95714.44;;;3.75;100.00
967;BME280;56108;48.730;9.304;2024-02-23T04:32:28;95721.72;;;3.95;100.00
967;BME280;56108;48.730;9.304;2024-02-23T04:34:34;95712.66;;;3.75;100.00
967;BME280;56108;48.730;9.304;2024-02-23T04:36:42;95700.44;;;3.74;100.00
967;BME280;56108;48.730;9.304;2024-02-23T04:38:50;95704.53;;;3.78;100.00
967;BME280;56108;48.730;9.304;2024-02-23T04:41:02;95730.03;;;3.78;100.00
967;BME280;56108;48.730;9.304;2024-02-23T04:43:13;95737.28;;;3.74;100.00
967;BME280;56108;48.730;9.304;2024-02-23T04:45:21;95729.38;;;3.74;100.00
967;BME280;56108;48.730;9.304;2024-02-23T04:47:29;95724.97;;;3.75;100.00
967;BME280;56108;48.730;9.304;2024-02-23T04:49:39;95738.19;;;3.86;100.00
967;BME280;56108;48.730;9.304;2024-02-23T04:51:47;95729.28;;;3.76;100.00
967;BME280;56108;48.730;9.304;2024-02-23T04:53:56;95733.28;;;3.81;100.00
967;BME280;56108;48.730;9.304;2024-02-23T04:56:05;95728.63;;;3.85;100.00
967;BME280;56108;48.730;9.304;2024-02-23T04:58:16;95733.50;;;3.78;100.00
967;BME280;56108;48.730;9.304;2024-02-23T05:00:25;95736.81;;;3.93;100.00
967;BME280;56108;48.730;9.304;2024-02-23T05:02:38;95734.31;;;3.79;100.00
967;BME280;56108;48.730;9.304;2024-02-23T05:04:47;95732.66;;;3.78;100.00
967;BME280;56108;48.730;9.304;2024-02-23T05:06:58;95733.19;;;3.70;100.00
967;BME280;56108;48.730;9.304;2024-02-23T05:09:06;95735.28;;;3.78;100.00
967;BME280;56108;48.730;9.304;2024-02-23T05:11:15;95735.81;;;3.70;100.00
967;BME280;56108;48.730;9.304;2024-02-23T05:13:26;95738.97;;;3.75;100.00
967;BME280;56108;48.730;9.304;2024-02-23T05:15:34;95741.75;;;3.61;100.00
967;BME280;56108;48.730;9.304;2024-02-23T05:17:43;95744.41;;;3.61;100.00
967;BME280;56108;48.730;9.304;2024-02-23T05:19:51;95744.16;;;3.64;100.00
967;BME280;56108;48.730;9.304;2024-02-23T05:21:57;95757.63;;;3.59;100.00
967;BME280;56108;48.730;9.304;2024-02-23T05:24:05;95756.84;;;3.46;100.00
967;BME280;56108;48.730;9.304;2024-02-23T05:26:14;95747.06;;;3.35;100.00
967;BME280;56108;48.730;9.304;2024-02-23T05:28:23;95750.00;;;3.44;100.00
967;BME280;56108;48.730;9.304;2024-02-23T05:30:35;95751.03;;;3.54;100.00
967;BME280;56108;48.730;9.304;2024-02-23T05:32:43;95741.19;;;3.45;100.00
967;BME280;56108;48.730;9.304;2024-02-23T05:34:52;95743.81;;;3.45;100.00
967;BME280;56108;48.730;9.304;2024-02-23T05:37:02;95746.63;;;3.42;100.00
967;BME280;56108;48.730;9.304;2024-02-23T05:39:10;95744.72;;;3.44;100.00
967;BME280;56108;48.730;9.304;2024-02-23T05:41:20;95740.22;;;3.46;100.00
967;BME280;56108;48.730;9.304;2024-02-23T05:43:28;95734.56;;;3.26;100.00
967;BME280;56108;48.730;9.304;2024-02-23T05:45:39;95725.63;;;3.29;100.00
967;BME280;56108;48.730;9.304;2024-02-23T05:47:48;95728.75;;;3.34;100.00
967;BME280;56108;48.730;9.304;2024-02-23T05:49:57;95731.31;;;3.35;100.00
967;BME280;56108;48.730;9.304;2024-02-23T05:52:05;95730.78;;;3.30;100.00
967;BME280;56108;48.730;9.304;2024-02-23T05:54:12;95726.03;;;3.35;100.00
967;BME280;56108;48.730;9.304;2024-02-23T05:56:21;95723.19;;;3.38;100.00
967;BME280;56108;48.730;9.304;2024-02-23T05:58:29;95726.69;;;3.26;100.00
967;BME280;56108;48.730;9.304;2024-02-23T06:00:42;95722.25;;;3.27;100.00
967;BME280;56108;48.730;9.304;2024-02-23T06:02:50;95722.91;;;3.18;100.00
967;BME280;56108;48.730;9.304;2024-02-23T06:04:56;95720.50;;;3.14;100.00
967;BME280;56108;48.730;9.304;2024-02-23T06:07:04;95720.19;;;3.19;100.00
967;BME280;56108;48.730;9.304;2024-02-23T06:09:13;95725.63;;;3.29;100.00
967;BME280;56108;48.730;9.304;2024-02-23T06:11:21;95714.94;;;3.19;100.00
967;BME280;56108;48.730;9.304;2024-02-23T06:13:29;95727.75;;;3.24;100.00
967;BME280;56108;48.730;9.304;2024-02-23T06:15:38;95726.69;;;3.26;100.00
967;BME280;56108;48.730;9.304;2024-02-23T06:17:51;95735.13;;;3.19;100.00
967;BME280;56108;48.730;9.304;2024-02-23T06:19:59;95733.75;;;3.00;100.00
967;BME280;56108;48.730;9.304;2024-02-23T06:22:11;95743.97;;;3.05;100.00
967;BME280;56108;48.730;9.304;2024-02-23T06:24:21;95736.19;;;3.03;100.00
967;BME280;56108;48.730;9.304;2024-02-23T06:26:30;95736.47;;;3.11;100.00
967;BME280;56108;48.730;9.304;2024-02-23T06:28:39;95735.56;;;3.00;100.00
967;BME280;56108;48.730;9.304;2024-02-23T06:30:48;95729.16;;;3.04;100.00
967;BME280;56108;48.730;9.304;2024-02-23T06:32:59;95733.44;;;3.05;100.00
967;BME280;56108;48.730;9.304;2024-02-23T06:35:10;95729.47;;;2.99;100.00
967;BME280;56108;48.730;9.304;2024-02-23T06:37:19;95738.59;;;3.06;100.00
967;BME280;56108;48.730;9.304;2024-02-23T06:39:28;95732.59;;;3.04;100.00
967;BME280;56108;48.730;9.304;2024-02-23T06:41:37;95727.56;;;3.14;100.00
967;BME280;56108;48.730;9.304;2024-02-23T06:43:46;95723.34;;;3.11;100.00
967;BME280;56108;48.730;9.304;2024-02-23T06:45:56;95727.75;;;3.11;100.00
967;BME280;56108;48.730;9.304;2024-02-23T06:48:08;95735.53;;;3.12;100.00
967;BME280;56108;48.730;9.304;2024-02-23T06:50:18;95736.28;;;3.14;100.00
967;BME280;56108;48.730;9.304;2024-02-23T06:52:28;95740.66;;;3.27;100.00
967;BME280;56108;48.730;9.304;2024-02-23T06:54:38;95730.38;;;3.24;100.00
967;BME280;56108;48.730;9.304;2024-02-23T06:56:47;95725.22;;;3.22;100.00
967;BME280;56108;48.730;9.304;2024-02-23T06:58:56;95733.50;;;3.42;100.00
967;BME280;56108;48.730;9.304;2024-02-23T07:01:05;95752.94;;;3.39;100.00
967;BME280;56108;48.730;9.304;2024-02-23T07:03:20;95746.44;;;3.32;100.00
967;BME280;56108;48.730;9.304;2024-02-23T07:05:28;95755.69;;;3.37;100.00
967;BME280;56108;48.730;9.304;2024-02-23T07:07:34;95771.53;;;3.49;100.00
967;BME280;56108;48.730;9.304;2024-02-23T07:09:45;95764.91;;;3.56;100.00
967;BME280;56108;48.730;9.304;2024-02-23T07:11:53;95784.56;;;3.63;100.00
967;BME280;56108;48.730;9.304;2024-02-23T07:14:02;95778.66;;;3.72;100.00
967;BME280;56108;48.730;9.304;2024-02-23T07:16:12;95777.69;;;3.73;100.00
967;BME280;56108;48.730;9.304;2024-02-23T07:18:25;95763.47;;;3.76;100.00
967;BME280;56108;48.730;9.304;2024-02-23T07:20:43;95765.44;;;3.85;100.00
967;BME280;56108;48.730;9.304;2024-02-23T07:22:51;95761.53;;;3.90;100.00
967;BME280;56108;48.730;9.304;2024-02-23T07:25:00;95775.00;;;3.99;100.00
967;BME280;56108;48.730;9.304;2024-02-23T07:27:06;95774.69;;;3.90;100.00
967;BME280;56108;48.730;9.304;2024-02-23T07:29:23;95782.69;;;3.89;100.00
967;BME280;56108;48.730;9.304;2024-02-23T07:31:31;95785.13;;;3.92;100.00
967;BME280;56108;48.730;9.304;2024-02-23T07:33:42;95795.16;;;3.87;100.00
967;BME280;56108;48.730;9.304;2024-02-23T07:35:55;95803.25;;;3.84;100.00
967;BME280;56108;48.730;9.304;2024-02-23T07:38:14;95795.22;;;3.98;100.00
967;BME280;56108;48.730;9.304;2024-02-23T07:40:23;95806.25;;;4.03;100.00
967;BME280;56108;48.730;9.304;2024-02-23T07:42:28;95806.00;;;4.06;100.00
967;BME280;56108;48.730;9.304;2024-02-23T07:44:36;95812.78;;;4.22;100.00
967;BME280;56108;48.730;9.304;2024-02-23T07:46:45;95816.81;;;4.38;100.00
967;BME280;56108;48.730;9.304;2024-02-23T07:48:57;95821.03;;;4.41;100.00
967;BME280;56108;48.730;9.304;2024-02-23T07:51:06;95832.50;;;4.64;100.00
967;BME280;56108;48.730;9.304;2024-02-23T07:53:14;95825.84;;;4.47;100.00
967;BME280;56108;48.730;9.304;2024-02-23T07:55:22;95829.09;;;4.51;100.00
967;BME280;56108;48.730;9.304;2024-02-23T07:57:31;95829.38;;;4.59;100.00
967;BME280;56108;48.730;9.304;2024-02-23T07:59:39;95821.88;;;4.41;100.00
967;BME280;56108;48.730;9.304;2024-02-23T08:01:48;95818.22;;;4.31;100.00
967;BME280;56108;48.730;9.304;2024-02-23T08:03:58;95830.38;;;4.69;100.00
967;BME280;56108;48.730;9.304;2024-02-23T08:06:08;95828.13;;;4.76;100.00
967;BME280;56108;48.730;9.304;2024-02-23T08:08:18;95821.34;;;4.95;100.00
967;BME280;56108;48.730;9.304;2024-02-23T08:10:23;95826.91;;;5.04;100.00
967;BME280;56108;48.730;9.304;2024-02-23T08:12:32;95820.91;;;5.02;100.00
967;BME280;56108;48.730;9.304;2024-02-23T08:14:45;95823.94;;;4.84;100.00
967;BME280;56108;48.730;9.304;2024-02-23T08:16:54;95828.16;;;4.87;100.00
967;BME280;56108;48.730;9.304;2024-02-23T08:19:06;95828.84;;;4.78;100.00
967;BME280;56108;48.730;9.304;2024-02-23T08:21:14;95835.09;;;4.77;100.00
967;BME280;56108;48.730;9.304;2024-02-23T08:23:23;95832.31;;;4.78;100.00
967;BME280;56108;48.730;9.304;2024-02-23T08:25:33;95832.13;;;4.92;100.00
967;BME280;56108;48.730;9.304;2024-02-23T08:27:41;95838.88;;;5.08;100.00
967;BME280;56108;48.730;9.304;2024-02-23T08:29:49;95836.41;;;5.17;100.00
967;BME280;56108;48.730;9.304;2024-02-23T08:31:57;95843.44;;;5.06;100.00
967;BME280;56108;48.730;9.304;2024-02-23T08:34:08;95844.22;;;4.95;100.00
967;BME280;56108;48.730;9.304;2024-02-23T08:36:18;95848.47;;;5.09;100.00
967;BME280;56108;48.730;9.304;2024-02-23T08:38:26;95848.63;;;5.18;100.00
967;BME280;56108;48.730;9.304;2024-02-23T08:40:35;95852.63;;;5.00;100.00
967;BME280;56108;48.730;9.304;2024-02-23T08:42:44;95845.06;;;4.95;100.00
967;BME280;56108;48.730;9.304;2024-02-23T08:44:55;95843.38;;;5.30;100.00
967;BME280;56108;48.730;9.304;2024-02-23T08:47:03;95842.59;;;5.16;100.00
967;BME280;56108;48.730;9.304;2024-02-23T08:49:14;95845.03;;;5.19;100.00
967;BME280;56108;48.730;9.304;2024-02-23T08:51:23;95844.34;;;5.40;100.00
967;BME280;56108;48.730;9.304;2024-02-23T08:53:31;95839.28;;;5.37;100.00
967;BME280;56108;48.730;9.304;2024-02-23T08:55:39;95836.22;;;5.54;100.00
967;BME280;56108;48.730;9.304;2024-02-23T08:57:47;95836.91;;;5.67;100.00
967;BME280;56108;48.730;9.304;2024-02-23T08:59:52;95834.75;;;5.84;100.00
967;BME280;56108;48.730;9.304;2024-02-23T09:02:03;95832.88;;;5.97;100.00
967;BME280;56108;48.730;9.304;2024-02-23T09:04:14;95828.16;;;5.78;100.00
967;BME280;56108;48.730;9.304;2024-02-23T09:06:22;95832.47;;;5.79;100.00
967;BME280;56108;48.730;9.304;2024-02-23T09:08:31;95851.56;;;5.71;100.00
967;BME280;56108;48.730;9.304;2024-02-23T09:10:39;95843.38;;;5.63;100.00
967;BME280;56108;48.730;9.304;2024-02-23T09:12:47;95851.22;;;5.54;100.00
967;BME280;56108;48.730;9.304;2024-02-23T09:14:56;95857.94;;;5.80;100.00
967;BME280;56108;48.730;9.304;2024-02-23T09:17:04;95847.25;;;5.82;100.00
967;BME280;56108;48.730;9.304;2024-02-23T09:19:16;95845.34;;;6.06;100.00
967;BME280;56108;48.730;9.304;2024-02-23T09:21:24;95835.34;;;6.32;100.00
967;BME280;56108;48.730;9.304;2024-02-23T09:23:32;95842.97;;;6.46;100.00
967;BME280;56108;48.730;9.304;2024-02-23T09:25:40;95845.00;;;6.54;100.00
967;BME280;56108;48.730;9.304;2024-02-23T09:27:49;95848.78;;;6.72;100.00
967;BME280;56108;48.730;9.304;2024-02-23T09:29:57;95859.25;;;6.63;100.00
967;BME280;56108;48.730;9.304;2024-02-23T09:32:06;95855.47;;;6.44;100.00
967;BME280;56108;48.730;9.304;2024-02-23T09:34:17;95869.28;;;6.48;98.27
967;BME280;56108;48.730;9.304;2024-02-23T09:36:25;95872.00;;;6.69;98.34
967;BME280;56108;48.730;9.304;2024-02-23T09:38:35;95866.34;;;6.62;99.96
967;BME280;56108;48.730;9.304;2024-02-23T09:40:44;95857.00;;;6.58;100.00
967;BME280;56108;48.730;9.304;2024-02-23T09:42:55;95876.97;;;6.94;99.60
967;BME280;56108;48.730;9.304;2024-02-23T09:45:01;95875.34;;;7.03;99.54
967;BME280;56108;48.730;9.304;2024-02-23T09:47:10;95874.88;;;6.98;94.71
967;BME280;56108;48.730;9.304;2024-02-23T09:49:21;95876.19;;;7.24;94.73
967;BME280;56108;48.730;9.304;2024-02-23T09:51:29;95879.03;;;7.53;93.59
967;BME280;56108;48.730;9.304;2024-02-23T09:53:39;95883.34;;;7.75;90.17
967;BME280;56108;48.730;9.304;2024-02-23T09:55:50;95880.50;;;7.67;89.70
967;BME280;56108;48.730;9.304;2024-02-23T09:57:59;95885.31;;;8.04;84.30
967;BME280;56108;48.730;9.304;2024-02-23T10:00:08;95900.16;;;8.66;81.04
967;BME280;56108;48.730;9.304;2024-02-23T10:02:17;95910.59;;;8.48;76.06
967;BME280;56108;48.730;9.304;2024-02-23T10:04:29;95912.56;;;8.56;75.90
967;BME280;56108;48.730;9.304;2024-02-23T10:06:38;95904.28;;;8.40;78.33
967;BME280;56108;48.730;9.304;2024-02-23T10:08:46;95897.53;;;8.26;76.79
967;BME280;56108;48.730;9.304;2024-02-23T10:10:55;95910.22;;;8.62;75.52
967;BME280;56108;48.730;9.304;2024-02-23T10:13:03;95918.06;;;8.83;73.43
967;BME280;56108;48.730;9.304;2024-02-23T10:15:12;95934.31;;;8.50;73.44
967;BME280;56108;48.730;9.304;2024-02-23T10:17:21;95924.41;;;7.70;76.02
967;BME280;56108;48.730;9.304;2024-02-23T10:19:33;95932.59;;;7.67;76.76
967;BME280;56108;48.730;9.304;2024-02-23T10:21:41;95924.28;;;7.29;79.18
967;BME280;56108;48.730;9.304;2024-02-23T10:23:50;95914.72;;;7.17;82.26
967;BME280;56108;48.730;9.304;2024-02-23T10:25:58;95917.53;;;7.25;81.04
967;BME280;56108;48.730;9.304;2024-02-23T10:28:07;95915.34;;;7.10;82.62
967;BME280;56108;48.730;9.304;2024-02-23T10:30:16;95917.53;;;7.25;80.01
967;BME280;56108;48.730;9.304;2024-02-23T10:32:25;95905.50;;;7.32;81.83
967;BME280;56108;48.730;9.304;2024-02-23T10:34:41;95902.00;;;7.11;80.80
967;BME280;56108;48.730;9.304;2024-02-23T10:36:52;95898.16;;;7.36;79.59
967;BME280;56108;48.730;9.304;2024-02-23T10:38:59;95905.19;;;7.68;78.22
967;BME280;56108;48.730;9.304;2024-02-23T10:41:11;95902.03;;;7.53;78.62
967;BME280;56108;48.730;9.304;2024-02-23T10:43:25;95909.44;;;7.59;75.48
967;BME280;56108;48.730;9.304;2024-02-23T10:45:36;95911.31;;;7.26;77.47
967;BME280;56108;48.730;9.304;2024-02-23T10:47:46;95905.44;;;7.44;77.63
967;BME280;56108;48.730;9.304;2024-02-23T10:50:00;95911.44;;;7.67;74.64
967;BME280;56108;48.730;9.304;2024-02-23T10:52:09;95914.16;;;7.55;74.40
967;BME280;56108;48.730;9.304;2024-02-23T10:54:20;95911.50;;;7.35;75.11
967;BME280;56108;48.730;9.304;2024-02-23T10:56:28;95912.59;;;7.32;74.51
967;BME280;56108;48.730;9.304;2024-02-23T10:58:37;95908.09;;;7.44;74.86
967;BME280;56108;48.730;9.304;2024-02-23T11:00:45;95901.31;;;7.51;74.57
967;BME280;56108;48.730;9.304;2024-02-23T11:02:55;95894.72;;;7.66;75.28
967;BME280;56108;48.730;9.304;2024-02-23T11:05:07;95900.47;;;8.02;73.66
967;BME280;56108;48.730;9.304;2024-02-23T11:07:19;95895.59;;;7.76;76.94
967;BME280;56108;48.730;9.304;2024-02-23T11:09:31;95893.28;;;7.62;72.47
967;BME280;56108;48.730;9.304;2024-02-23T11:11:51;95904.28;;;7.57;72.92
967;BME280;56108;48.730;9.304;2024-02-23T11:14:02;95908.31;;;7.82;71.58
967;BME280;56108;48.730;9.304;2024-02-23T11:16:21;95889.78;;;7.52;74.82
967;BME280;56108;48.730;9.304;2024-02-23T11:18:29;95890.97;;;7.69;72.78
967;BME280;56108;48.730;9.304;2024-02-23T11:20:41;95896.94;;;7.92;72.86
967;BME280;56108;48.730;9.304;2024-02-23T11:22:51;95893.66;;;8.09;72.38
967;BME280;56108;48.730;9.304;2024-02-23T11:25:00;95880.47;;;8.19;72.94
967;BME280;56108;48.730;9.304;2024-02-23T11:27:13;95894.97;;;8.15;70.13
967;BME280;56108;48.730;9.304;2024-02-23T11:29:26;95895.28;;;7.91;70.61
967;BME280;56108;48.730;9.304;2024-02-23T11:31:35;95891.94;;;7.98;72.89
967;BME280;56108;48.730;9.304;2024-02-23T11:33:49;95885.28;;;7.73;71.43
967;BME280;56108;48.730;9.304;2024-02-23T11:36:10;95888.28;;;7.59;70.97
967;BME280;56108;48.730;9.304;2024-02-23T11:38:20;95875.88;;;7.39;73.73
967;BME280;56108;48.730;9.304;2024-02-23T11:40:30;95878.72;;;7.68;75.02
967;BME280;56108;48.730;9.304;2024-02-23T11:42:39;95883.03;;;7.69;76.02
967;BME280;56108;48.730;9.304;2024-02-23T11:44:47;95882.06;;;8.00;74.99
967;BME280;56108;48.730;9.304;2024-02-23T11:46:58;95894.94;;;8.05;73.39